Time;durP1;ratioP1;P1;durP2;ratioP2;P2;SDS_P1;SDS_P2;PMS_P1;PMS_P2;Temp;Humidity;BMP_temperature;BMP_pressure;BME280_temperature;BME280_humidity;BME280_pressure;Samples;Min_cycle;Max_cycle;Signal;HPM_P1;HPM_P2
2023/04/22 00:00:17;;;;;;;;;35.00;30.75;;;;;14.20;45.11;100091.13;2101905;28;45682;-63
2023/04/22 00:01:18;;;;;;;;;26.25;26.25;;;;;14.19;45.18;100092.06;2105427;27;46625;-65
2023/04/22 00:02:18;;;;;;;;;28.25;27.75;;;;;14.19;45.08;100093.88;2106323;27;46292;-65
2023/04/22 00:03:20;;;;;;;;;37.50;33.00;;;;;14.19;44.96;100089.41;2095932;28;46729;-66
2023/04/22 00:04:21;;;;;;;;;42.40;36.00;;;;;14.18;45.04;100098.34;2095817;27;46448;-63
2023/04/22 00:05:21;;;;;;;;;42.50;36.50;;;;;14.19;45.38;100096.53;2102147;27;46522;-64
2023/04/22 00:06:22;;;;;;;;;49.75;40.75;;;;;14.18;45.15;100093.00;2097106;28;46426;-64
2023/04/22 00:07:22;;;;;;;;;59.00;48.25;;;;;14.16;45.22;100096.69;2105710;27;46142;-64
2023/04/22 00:08:23;;;;;;;;;58.00;46.50;;;;;14.17;45.25;100093.06;2104447;28;46883;-64
2023/04/22 00:09:23;;;;;;;;;51.75;43.00;;;;;14.15;45.49;100095.81;2104909;28;46671;-64
2023/04/22 00:10:23;;;;;;;;;38.75;33.50;;;;;14.15;45.46;100090.47;2105546;28;46128;-63
2023/04/22 00:11:24;;;;;;;;;46.50;38.75;;;;;14.14;45.32;100097.63;2104844;28;44979;-64
2023/04/22 00:12:24;;;;;;;;;48.25;40.00;;;;;14.15;45.45;100098.50;2105932;28;44982;-63
2023/04/22 00:13:24;;;;;;;;;119.67;112.67;;;;;14.14;45.79;100092.28;2099701;28;46389;-64
2023/04/22 00:14:25;;;;;;;;;187.00;170.00;;;;;14.14;45.31;100094.09;2096585;28;46596;-64
2023/04/22 00:15:25;;;;;;;;;137.00;126.67;;;;;14.14;45.64;100094.97;2105439;28;45749;-64
2023/04/22 00:16:26;;;;;;;;;190.75;173.75;;;;;14.14;45.56;100099.44;2096033;28;46475;-64
2023/04/22 00:17:26;;;;;;;;;407.67;360.00;;;;;14.13;45.91;100095.91;2090972;28;46298;-64
2023/04/22 00:18:26;;;;;;;;;324.50;302.75;;;;;14.13;45.61;100101.22;2102421;28;46358;-64
2023/04/22 00:19:27;;;;;;;;;538.00;480.50;;;;;14.12;46.12;100094.16;2098590;28;45937;-64
2023/04/22 00:20:28;;;;;;;;;307.75;269.25;;;;;14.11;45.92;100094.25;2104970;28;45482;-65
2023/04/22 00:21:28;;;;;;;;;117.67;106.67;;;;;14.11;45.64;100100.44;2104865;28;46668;-67
2023/04/22 00:22:28;;;;;;;;;150.00;141.67;;;;;14.10;45.77;100101.38;2105636;27;46974;-65
2023/04/22 00:23:29;;;;;;;;;296.75;266.00;;;;;14.11;45.88;100102.25;2104834;28;46498;-64
2023/04/22 00:24:29;;;;;;;;;286.25;260.00;;;;;14.08;46.15;100097.88;2105912;27;46079;-66
2023/04/22 00:25:30;;;;;;;;;349.00;315.00;;;;;14.07;46.21;100100.63;2095907;28;47152;-64
2023/04/22 00:26:30;;;;;;;;;210.50;186.75;;;;;14.05;45.84;100100.72;2095690;28;46084;-64
2023/04/22 00:27:31;;;;;;;;;200.00;177.75;;;;;14.02;46.23;100089.31;2105461;28;45793;-64
2023/04/22 00:28:31;;;;;;;;;197.25;181.50;;;;;13.98;46.36;100101.06;2105162;28;46508;-64
2023/04/22 00:29:32;;;;;;;;;277.50;252.00;;;;;13.96;46.64;100098.44;2095837;28;46732;-65
2023/04/22 00:30:32;;;;;;;;;268.25;246.75;;;;;13.95;46.77;100093.19;2096574;28;46617;-63
2023/04/22 00:31:33;;;;;;;;;307.00;272.25;;;;;13.95;46.43;100093.19;2105514;27;46604;-64
2023/04/22 00:32:33;;;;;;;;;330.00;282.25;;;;;13.96;46.62;100101.13;2099661;28;46676;-66
2023/04/22 00:33:33;;;;;;;;;328.25;298.50;;;;;13.96;46.66;100093.13;2097967;28;47470;-64
2023/04/22 00:34:34;;;;;;;;;183.50;169.00;;;;;13.96;46.22;100097.59;2104862;28;46554;-64
2023/04/22 00:35:34;;;;;;;;;262.50;242.50;;;;;13.93;46.55;100093.25;2104682;28;45565;-63
2023/04/22 00:36:34;;;;;;;;;253.50;226.50;;;;;13.91;46.71;100097.81;2096232;28;46719;-65
2023/04/22 00:37:35;;;;;;;;;80.00;71.25;;;;;13.90;46.58;100093.41;2100026;28;46323;-63
2023/04/22 00:38:35;;;;;;;;;94.50;84.75;;;;;13.90;46.64;100095.22;2105269;28;46449;-64
2023/04/22 00:39:38;;;;;;;;;174.00;157.50;;;;;13.89;46.57;100094.34;2105308;27;45758;-64
2023/04/22 00:40:38;;;;;;;;;122.67;116.00;;;;;13.90;46.69;100096.06;2105030;28;46547;-64
2023/04/22 00:41:39;;;;;;;;;138.33;122.33;;;;;13.91;46.64;100094.28;2109185;27;45471;-64
2023/04/22 00:42:42;;;;;;;;;102.33;93.67;;;;;13.91;46.57;100086.28;2105137;27;46258;-65
2023/04/22 00:43:43;;;;;;;;;122.33;111.33;;;;;13.90;46.55;100084.53;2096358;28;45711;-65
2023/04/22 00:44:46;;;;;;;;;77.75;64.75;;;;;13.88;46.43;100089.94;2096383;28;46733;-65
2023/04/22 00:45:48;;;;;;;;;98.75;85.00;;;;;13.88;46.24;100092.63;2099062;28;46670;-64
2023/04/22 00:46:49;;;;;;;;;80.75;73.50;;;;;13.86;46.48;100086.50;2103172;28;46206;-63
2023/04/22 00:47:51;;;;;;;;;94.00;88.00;;;;;13.87;46.38;100095.34;2102951;28;46400;-64
2023/04/22 00:48:52;;;;;;;;;113.33;105.33;;;;;13.85;46.43;100095.44;2096242;28;45697;-64
2023/04/22 00:49:53;;;;;;;;;157.75;146.75;;;;;13.86;46.44;100093.63;2095767;28;46449;-63
2023/04/22 00:50:54;;;;;;;;;72.00;60.00;;;;;13.85;46.62;100098.09;2100558;28;46913;-65
2023/04/22 00:51:54;;;;;;;;;260.00;227.00;;;;;13.86;46.53;100097.16;2102035;28;45545;-65
2023/04/22 00:52:54;;;;;;;;;208.00;188.75;;;;;13.84;46.45;100094.53;2086568;28;45679;-64
2023/04/22 00:53:55;;;;;;;;;200.50;181.25;;;;;13.83;46.72;100091.94;2098950;28;46773;-66
2023/04/22 00:54:55;;;;;;;;;172.50;158.25;;;;;13.83;46.79;100094.59;2095965;28;46228;-64
2023/04/22 00:55:56;;;;;;;;;109.67;96.33;;;;;13.82;46.90;100088.41;2095762;28;46856;-65
2023/04/22 00:56:57;;;;;;;;;94.50;91.00;;;;;13.83;46.50;100087.47;2103528;28;45733;-65
2023/04/22 00:57:59;;;;;;;;;88.00;82.00;;;;;13.82;46.79;100093.75;2096622;28;45664;-64
2023/04/22 00:59:00;;;;;;;;;84.00;78.25;;;;;13.82;46.80;100088.41;2104248;27;47697;-65
2023/04/22 01:00:01;;;;;;;;;80.25;75.00;;;;;13.82;46.48;100085.75;2100683;28;45851;-66
2023/04/22 01:01:02;;;;;;;;;87.33;82.00;;;;;13.82;46.58;100076.88;2103374;27;46039;-64
2023/04/22 01:02:03;;;;;;;;;72.25;57.50;;;;;13.83;46.71;100071.47;2108095;27;46374;-64
2023/04/22 01:03:06;;;;;;;;;58.00;47.25;;;;;13.83;46.56;100071.47;2105234;28;45903;-65
2023/04/22 01:04:06;;;;;;;;;61.40;50.00;;;;;13.84;46.64;100069.66;2102015;27;45681;-65
2023/04/22 01:05:08;;;;;;;;;54.80;45.20;;;;;13.84;46.33;100067.00;2102374;27;46403;-65
2023/04/22 01:06:08;;;;;;;;;52.00;43.80;;;;;13.84;46.49;100067.88;2096329;28;46656;-65
2023/04/22 01:07:09;;;;;;;;;38.50;33.75;;;;;13.85;46.43;100066.09;2102036;28;47199;-64
2023/04/22 01:08:10;;;;;;;;;37.75;33.00;;;;;13.86;46.35;100058.97;2104787;28;45615;-64
2023/04/22 01:09:10;;;;;;;;;48.75;39.25;;;;;13.83;46.42;100057.28;2104743;28;47131;-64
2023/04/22 01:10:11;;;;;;;;;46.25;36.75;;;;;13.83;46.39;100057.28;2104633;28;46481;-64
2023/04/22 01:11:12;;;;;;;;;38.75;34.00;;;;;13.81;46.27;100057.34;2086401;28;46776;-64
2023/04/22 01:12:12;;;;;;;;;41.40;33.00;;;;;13.81;46.27;100052.00;2086171;28;46224;-65
2023/04/22 01:13:13;;;;;;;;;40.00;35.50;;;;;13.82;46.69;100050.19;2100927;28;46851;-64
2023/04/22 01:14:13;;;;;;;;;37.75;33.50;;;;;13.81;46.33;100049.34;2096421;28;46625;-65
2023/04/22 01:15:13;;;;;;;;;42.25;35.75;;;;;13.81;46.49;100046.66;2098506;27;46521;-65
2023/04/22 01:16:14;;;;;;;;;44.50;36.75;;;;;13.82;46.43;100048.41;2087318;28;45401;-64
2023/04/22 01:17:15;;;;;;;;;39.50;35.00;;;;;13.83;46.39;100043.94;2087379;28;46444;-63
2023/04/22 01:18:16;;;;;;;;;35.80;33.00;;;;;13.83;46.42;100043.94;2104632;28;46402;-65
2023/04/22 01:19:17;;;;;;;;;46.00;37.00;;;;;13.84;46.62;100043.00;2104759;28;46367;-63
2023/04/22 01:20:18;;;;;;;;;50.00;41.00;;;;;13.85;46.35;100044.75;2096627;28;46202;-64
2023/04/22 01:21:18;;;;;;;;;46.00;38.40;;;;;13.84;46.35;100041.19;2096596;28;46484;-64
2023/04/22 01:22:20;;;;;;;;;37.25;33.50;;;;;13.83;46.55;100036.78;2105052;27;46148;-65
2023/04/22 01:23:21;;;;;;;;;48.20;39.60;;;;;13.81;46.44;100049.34;2104360;27;46014;-64
2023/04/22 01:24:21;;;;;;;;;40.00;35.00;;;;;13.81;46.82;100052.00;2104700;28;46237;-65
2023/04/22 01:25:23;;;;;;;;;43.50;37.50;;;;;13.81;46.71;100045.81;2104295;28;46626;-64
2023/04/22 01:26:23;;;;;;;;;38.80;33.20;;;;;13.80;46.72;100038.75;2104316;28;46792;-64
2023/04/22 01:27:24;;;;;;;;;41.25;34.00;;;;;13.78;46.31;100036.16;2093142;28;46263;-65
2023/04/22 01:28:25;;;;;;;;;33.50;32.00;;;;;13.77;46.64;100038.91;2091725;28;46646;-63
2023/04/22 01:29:26;;;;;;;;;37.00;33.00;;;;;13.75;46.69;100030.97;2097856;28;46226;-64
2023/04/22 01:30:26;;;;;;;;;32.00;30.50;;;;;13.74;46.66;100026.56;2104995;27;46179;-64
2023/04/22 01:31:28;;;;;;;;;33.00;30.75;;;;;13.72;46.29;100023.13;2104842;28;46709;-65
2023/04/22 01:32:29;;;;;;;;;46.80;38.80;;;;;13.72;46.62;100028.44;2105025;27;46592;-64
2023/04/22 01:33:30;;;;;;;;;37.60;34.00;;;;;13.71;46.71;100029.34;2105295;28;45924;-66
2023/04/22 01:34:31;;;;;;;;;35.75;33.00;;;;;13.71;46.78;100040.03;2104445;28;46306;-66
2023/04/22 01:35:35;;;;;;;;;38.80;33.00;;;;;13.69;46.64;100030.38;2105042;28;46918;-64
2023/04/22 01:36:36;;;;;;;;;30.80;30.00;;;;;13.67;46.63;100027.78;2104239;28;46816;-66
2023/04/22 01:37:37;;;;;;;;;31.75;30.00;;;;;13.66;46.73;100023.38;2105064;28;45794;-65
2023/04/22 01:38:37;;;;;;;;;35.00;32.50;;;;;13.65;46.78;100024.31;2104654;28;46266;-65
2023/04/22 01:39:38;;;;;;;;;38.50;33.25;;;;;13.63;46.55;100020.84;2104629;28;46291;-64
2023/04/22 01:40:38;;;;;;;;;37.00;33.00;;;;;13.64;46.70;100024.38;2104400;28;46076;-64
2023/04/22 01:41:40;;;;;;;;;34.25;30.75;;;;;13.63;46.93;100025.31;2100895;28;46296;-65
2023/04/22 01:42:40;;;;;;;;;42.40;36.00;;;;;13.63;46.79;100028.00;2095565;28;46480;-65
2023/04/22 01:43:42;;;;;;;;;37.25;34.00;;;;;13.64;46.84;100029.72;2095819;28;45531;-63
2023/04/22 01:44:42;;;;;;;;;33.80;30.00;;;;;13.63;46.90;100023.53;2105047;28;46044;-66
2023/04/22 01:45:42;;;;;;;;;34.00;31.50;;;;;13.63;46.90;100023.53;2104399;28;46188;-64
2023/04/22 01:46:43;;;;;;;;;36.25;32.50;;;;;13.61;46.84;100022.72;2104330;28;46306;-65
2023/04/22 01:47:43;;;;;;;;;40.50;34.25;;;;;13.60;46.89;100022.81;2105336;28;46150;-65
2023/04/22 01:48:49;;;;;;;;;36.50;31.50;;;;;13.59;46.98;100031.72;2087907;28;45628;-64
2023/04/22 01:49:50;;;;;;;;;39.60;35.20;;;;;13.58;46.96;100024.66;2094869;28;46107;-65
2023/04/22 01:50:51;;;;;;;;;36.00;32.80;;;;;13.57;47.14;100021.13;2104331;28;46650;-64
2023/04/22 01:51:51;;;;;;;;;29.00;28.50;;;;;13.59;47.11;100021.03;2104388;28;46483;-64
2023/04/22 01:52:52;;;;;;;;;31.75;30.25;;;;;13.58;47.20;100017.50;2104739;28;46313;-64
2023/04/22 01:53:52;;;;;;;;;45.50;38.75;;;;;13.60;47.13;100017.47;2105246;28;45114;-63
2023/04/22 01:54:53;;;;;;;;;51.50;42.50;;;;;13.60;47.23;100014.81;2103129;28;46674;-65
2023/04/22 01:55:53;;;;;;;;;50.50;40.75;;;;;13.58;47.48;100012.19;2100182;28;46033;-64
2023/04/22 01:56:54;;;;;;;;;50.00;40.50;;;;;13.57;47.13;100012.25;2104468;28;45607;-65
2023/04/22 01:57:55;;;;;;;;;40.00;35.40;;;;;13.55;47.44;100007.84;2104409;28;46389;-64
2023/04/22 01:58:55;;;;;;;;;41.25;35.25;;;;;13.55;47.32;100015.00;2095464;28;45649;-65
2023/04/22 01:59:57;;;;;;;;;39.75;33.75;;;;;13.54;47.51;100006.13;2095352;28;46082;-65
2023/04/22 02:00:57;;;;;;;;;39.60;33.40;;;;;13.55;47.48;100007.00;2104296;28;48044;-65
2023/04/22 02:01:57;;;;;;;;;40.25;34.00;;;;;13.55;47.26;100002.53;2104595;28;46610;-64
2023/04/22 02:02:58;;;;;;;;;36.50;32.00;;;;;13.54;47.28;99999.94;2098128;28;45729;-64
2023/04/22 02:03:58;;;;;;;;;38.00;34.75;;;;;13.57;47.37;99985.59;2097455;28;45858;-65
2023/04/22 02:04:58;;;;;;;;;30.50;30.00;;;;;13.57;47.29;99982.94;2102881;28;46586;-64
2023/04/22 02:05:59;;;;;;;;;29.25;29.25;;;;;13.54;47.28;99982.13;2102963;28;45281;-64
2023/04/22 02:06:59;;;;;;;;;33.75;31.75;;;;;13.54;47.53;99976.81;2096560;28;46308;-64
2023/04/22 02:07:59;;;;;;;;;60.25;47.75;;;;;13.53;47.34;99980.41;2102514;28;46189;-65
2023/04/22 02:09:00;;;;;;;;;47.00;39.00;;;;;13.52;47.43;99984.00;2103215;28;45537;-64
2023/04/22 02:10:01;;;;;;;;;53.25;42.25;;;;;13.52;47.44;99981.34;2094883;28;46761;-66
2023/04/22 02:11:01;;;;;;;;;64.80;51.80;;;;;13.52;47.32;99969.81;2099777;27;46389;-63
2023/04/22 02:12:02;;;;;;;;;57.25;46.50;;;;;13.52;47.53;99969.81;2105399;27;46244;-64
2023/04/22 02:13:02;;;;;;;;;69.25;56.75;;;;;13.50;47.55;99961.91;2103920;28;45571;-65
2023/04/22 02:14:02;;;;;;;;;61.25;50.75;;;;;13.50;47.48;99963.69;2103096;27;46531;-65
2023/04/22 02:15:03;;;;;;;;;52.75;43.75;;;;;13.50;47.50;99963.69;2103690;28;45365;-65
2023/04/22 02:16:04;;;;;;;;;51.60;42.00;;;;;13.48;47.52;99966.44;2102766;28;46097;-64
2023/04/22 02:17:05;;;;;;;;;46.50;37.50;;;;;13.48;47.44;99971.78;2103514;28;46299;-63
2023/04/22 02:18:06;;;;;;;;;57.00;47.25;;;;;13.49;47.53;99965.50;2103460;28;46697;-63
2023/04/22 02:19:07;;;;;;;;;47.40;40.60;;;;;13.50;47.56;99966.38;2102852;28;46614;-65
2023/04/22 02:20:10;;;;;;;;;55.50;47.00;;;;;13.50;47.59;99971.69;2103317;28;46327;-65
2023/04/22 02:21:10;;;;;;;;;55.20;43.40;;;;;13.50;47.47;99977.91;2103191;28;45653;-64
2023/04/22 02:22:11;;;;;;;;;54.75;45.50;;;;;13.48;47.58;99978.91;2099047;28;45972;-65
2023/04/22 02:23:11;;;;;;;;;62.00;50.50;;;;;13.47;47.94;99986.03;2103637;27;46660;-64
2023/04/22 02:24:11;;;;;;;;;55.75;46.25;;;;;13.46;48.00;99981.63;2099695;27;46504;-64
2023/04/22 02:25:12;;;;;;;;;49.75;42.25;;;;;13.45;47.87;99985.22;2098448;28;45497;-64
2023/04/22 02:26:13;;;;;;;;;45.20;38.00;;;;;13.44;47.81;99979.94;2103052;28;45681;-65
2023/04/22 02:27:13;;;;;;;;;43.75;36.50;;;;;13.42;48.08;99980.03;2103480;28;46164;-65
2023/04/22 02:28:13;;;;;;;;;46.50;39.75;;;;;13.41;48.13;99985.44;2087190;28;46337;-64
2023/04/22 02:29:15;;;;;;;;;60.75;49.75;;;;;13.40;47.87;99986.38;2086233;28;46380;-63
2023/04/22 02:30:15;;;;;;;;;51.60;43.00;;;;;13.39;48.04;99979.31;2093757;28;45102;-64
2023/04/22 02:31:15;;;;;;;;;56.75;44.50;;;;;13.38;47.91;99983.78;2095233;28;47016;-63
2023/04/22 02:32:16;;;;;;;;;46.75;37.00;;;;;13.38;47.87;99982.91;2091915;28;46540;-64
2023/04/22 02:33:16;;;;;;;;;35.00;32.50;;;;;13.36;47.81;99985.66;2095409;28;45058;-64
2023/04/22 02:34:17;;;;;;;;;41.75;35.50;;;;;13.37;48.23;99987.38;2103523;28;46018;-64
2023/04/22 02:35:17;;;;;;;;;36.75;32.50;;;;;13.36;48.13;99984.78;2105147;27;47358;-65
2023/04/22 02:36:17;;;;;;;;;45.25;38.50;;;;;13.36;48.06;99982.13;2089852;28;45698;-66
2023/04/22 02:37:18;;;;;;;;;52.25;43.00;;;;;13.36;48.06;99984.78;2094927;28;46271;-64
2023/04/22 02:38:18;;;;;;;;;52.00;43.25;;;;;13.35;48.08;99978.59;2097650;28;46295;-66
2023/04/22 02:39:19;;;;;;;;;47.75;39.50;;;;;13.35;48.00;99977.72;2105224;28;45981;-64
2023/04/22 02:40:20;;;;;;;;;47.25;39.00;;;;;13.35;48.12;99978.59;2105047;27;46264;-65
2023/04/22 02:41:20;;;;;;;;;46.00;37.00;;;;;13.36;48.40;99979.47;2104196;28;46507;-64
2023/04/22 02:42:20;;;;;;;;;45.75;36.00;;;;;13.37;48.05;99981.19;2096188;28;45797;-64
2023/04/22 02:43:20;;;;;;;;;42.00;34.50;;;;;13.38;48.44;99981.13;2098852;28;46621;-64
2023/04/22 02:44:21;;;;;;;;;44.00;34.75;;;;;13.40;48.22;99978.38;2104060;28;46314;-64
2023/04/22 02:45:21;;;;;;;;;39.25;33.75;;;;;13.39;48.28;99988.16;2104238;28;46717;-65
2023/04/22 02:46:22;;;;;;;;;39.00;31.75;;;;;13.37;48.29;99982.06;2097064;28;46735;-65
2023/04/22 02:47:23;;;;;;;;;37.50;33.50;;;;;13.36;48.16;99982.97;2104199;28;45669;-63
2023/04/22 02:48:23;;;;;;;;;36.25;32.00;;;;;13.34;48.22;99982.19;2104073;28;46227;-63
2023/04/22 02:49:23;;;;;;;;;29.75;27.00;;;;;13.34;48.27;99979.53;2099906;28;46616;-65
2023/04/22 02:50:24;;;;;;;;;36.75;33.25;;;;;13.35;48.32;99970.59;2098856;28;45043;-65
2023/04/22 02:51:25;;;;;;;;;47.50;39.00;;;;;13.38;48.08;99972.25;2099321;28;45524;-65
2023/04/22 02:52:25;;;;;;;;;36.40;32.40;;;;;13.38;48.30;99970.44;2104015;28;46529;-65
2023/04/22 02:53:26;;;;;;;;;36.75;32.25;;;;;13.40;48.23;99981.91;2103978;28;46427;-64
2023/04/22 02:54:26;;;;;;;;;33.75;31.75;;;;;13.40;48.27;99981.03;2103747;28;46325;-64
2023/04/22 02:55:27;;;;;;;;;32.00;30.75;;;;;13.40;48.41;99978.38;2095653;28;45137;-64
2023/04/22 02:56:27;;;;;;;;;31.50;29.00;;;;;13.41;48.21;99983.63;2095444;28;45165;-65
2023/04/22 02:57:28;;;;;;;;;29.75;29.50;;;;;13.43;48.13;99980.91;2100858;28;45976;-65
2023/04/22 02:58:28;;;;;;;;;27.50;26.25;;;;;13.42;48.36;99977.38;2095515;28;44995;-64
2023/04/22 02:59:30;;;;;;;;;29.75;27.25;;;;;13.43;48.35;99970.22;2086203;28;45798;-65
2023/04/22 03:00:30;;;;;;;;;28.20;26.00;;;;;13.41;48.35;99972.97;2086419;28;46195;-65
2023/04/22 03:01:31;;;;;;;;;29.25;28.25;;;;;13.39;48.25;99974.84;2087562;28;45578;-64
2023/04/22 03:02:31;;;;;;;;;32.50;29.75;;;;;13.36;48.39;99977.66;2087789;28;46365;-64
2023/04/22 03:03:31;;;;;;;;;29.00;28.00;;;;;13.34;48.28;99978.63;2098311;28;45548;-65
2023/04/22 03:04:32;;;;;;;;;29.25;28.25;;;;;13.33;48.44;99974.25;2103899;27;46283;-64
2023/04/22 03:05:32;;;;;;;;;24.00;23.25;;;;;13.33;48.43;99974.25;2090589;28;46426;-64
2023/04/22 03:06:32;;;;;;;;;23.75;23.00;;;;;13.33;48.82;99967.09;2092248;28;45593;-64
2023/04/22 03:07:33;;;;;;;;;29.00;26.00;;;;;13.33;48.64;99967.09;2094693;28;46231;-64
2023/04/22 03:08:33;;;;;;;;;31.25;27.75;;;;;13.33;48.32;99961.78;2094824;28;46252;-66
2023/04/22 03:09:33;;;;;;;;;24.75;23.00;;;;;13.32;48.38;99960.06;2100666;28;45979;-67
2023/04/22 03:10:34;;;;;;;;;28.25;28.25;;;;;13.32;48.32;99962.72;2096419;28;45124;-67
2023/04/22 03:11:35;;;;;;;;;29.25;26.75;;;;;13.32;48.57;99953.84;2096377;28;45061;-64
2023/04/22 03:12:35;;;;;;;;;31.00;26.75;;;;;13.32;48.42;99952.06;2095643;28;46082;-69
2023/04/22 03:13:35;;;;;;;;;30.75;30.00;;;;;13.33;48.65;99948.47;2095907;28;46170;-65
2023/04/22 03:14:35;;;;;;;;;24.75;23.25;;;;;13.32;48.66;99938.72;2101099;27;46218;-64
2023/04/22 03:15:36;;;;;;;;;24.75;24.00;;;;;13.33;48.56;99937.78;2104105;28;46125;-64
2023/04/22 03:16:36;;;;;;;;;29.75;27.50;;;;;13.32;48.59;99941.41;2104074;28;46344;-64
2023/04/22 03:17:36;;;;;;;;;31.25;27.25;;;;;13.32;48.70;99943.19;2101307;28;45918;-64
2023/04/22 03:18:37;;;;;;;;;27.75;26.75;;;;;13.31;48.73;99936.13;2099860;28;46747;-65
2023/04/22 03:19:37;;;;;;;;;29.25;27.50;;;;;13.31;48.55;99938.81;2097793;28;46734;-64
2023/04/22 03:20:37;;;;;;;;;28.25;27.00;;;;;13.31;48.70;99936.13;2096402;28;46603;-65
2023/04/22 03:21:38;;;;;;;;;27.75;26.75;;;;;13.32;48.69;99932.53;2104467;28;45913;-64
2023/04/22 03:22:38;;;;;;;;;26.00;25.00;;;;;13.33;48.90;99934.25;2104043;28;45436;-65
2023/04/22 03:23:39;;;;;;;;;30.50;28.50;;;;;13.32;48.87;99929.88;2104512;28;46913;-64
2023/04/22 03:24:39;;;;;;;;;22.50;21.50;;;;;13.33;49.01;99929.81;2105432;28;46995;-66
2023/04/22 03:25:40;;;;;;;;;29.00;27.50;;;;;13.33;48.89;99927.13;2096948;28;46409;-62
2023/04/22 03:26:40;;;;;;;;;29.50;27.50;;;;;13.33;48.66;99928.94;2096524;28;46327;-65
2023/04/22 03:27:41;;;;;;;;;28.25;28.25;;;;;13.35;48.90;99919.09;2105506;28;46122;-64
2023/04/22 03:28:41;;;;;;;;;30.75;29.00;;;;;13.36;48.91;99927.03;2105116;28;46223;-64
2023/04/22 03:29:41;;;;;;;;;26.00;25.00;;;;;13.38;48.82;99924.28;2105149;27;45983;-65
2023/04/22 03:30:41;;;;;;;;;32.00;29.50;;;;;13.37;49.00;99914.56;2100114;27;45724;-64
2023/04/22 03:31:42;;;;;;;;;27.25;26.25;;;;;13.37;49.06;99906.56;2101822;27;46394;-63
2023/04/22 03:32:42;;;;;;;;;25.00;21.75;;;;;13.37;48.89;99904.75;2099195;28;46227;-64
2023/04/22 03:33:42;;;;;;;;;27.75;27.00;;;;;13.37;49.11;99910.09;2092836;28;45660;-64
2023/04/22 03:34:43;;;;;;;;;25.50;22.00;;;;;13.37;48.97;99903.91;2088213;28;46575;-64
2023/04/22 03:35:43;;;;;;;;;32.50;30.00;;;;;13.37;48.94;99899.44;2089659;28;45452;-65
2023/04/22 03:36:43;;;;;;;;;26.25;26.25;;;;;13.39;48.98;99899.34;2082010;28;45808;-64
2023/04/22 03:37:44;;;;;;;;;25.50;25.50;;;;;13.38;49.34;99902.97;2096028;28;46349;-65
2023/04/22 03:38:44;;;;;;;;;27.75;26.75;;;;;13.38;48.98;99902.97;2105061;28;46671;-65
2023/04/22 03:39:44;;;;;;;;;32.00;29.50;;;;;13.37;49.07;99890.56;2105018;27;46565;-64
2023/04/22 03:40:45;;;;;;;;;29.50;27.50;;;;;13.37;49.22;99893.25;2105447;28;46449;-64
2023/04/22 03:41:45;;;;;;;;;23.25;23.25;;;;;13.37;49.29;99901.22;2105514;28;46285;-64
2023/04/22 03:42:45;;;;;;;;;27.50;27.50;;;;;13.35;49.12;99898.66;2105463;28;46287;-65
2023/04/22 03:43:46;;;;;;;;;24.50;24.25;;;;;13.35;49.43;99903.97;2095940;28;46567;-65
2023/04/22 03:44:46;;;;;;;;;31.00;28.00;;;;;13.35;49.38;99903.13;2096123;28;46602;-65
2023/04/22 03:45:47;;;;;;;;;28.00;26.25;;;;;13.33;49.31;99905.81;2094833;28;46220;-65
2023/04/22 03:46:47;;;;;;;;;28.50;28.00;;;;;13.34;49.43;99912.91;2095286;28;46373;-65
2023/04/22 03:47:47;;;;;;;;;22.25;21.75;;;;;13.33;49.45;99913.81;2105500;28;46423;-65
2023/04/22 03:48:47;;;;;;;;;29.25;26.75;;;;;13.33;49.65;99916.47;2106022;27;46758;-65
2023/04/22 03:49:48;;;;;;;;;30.50;29.00;;;;;13.35;49.54;99913.78;2105089;28;46389;-64
2023/04/22 03:50:48;;;;;;;;;27.50;27.00;;;;;13.36;49.60;99915.50;2105378;28;46595;-66
2023/04/22 03:51:48;;;;;;;;;26.75;26.00;;;;;13.36;49.50;99913.69;2105417;28;45248;-66
2023/04/22 03:52:49;;;;;;;;;33.00;30.00;;;;;13.36;49.57;99919.03;2105337;28;45566;-65
2023/04/22 03:53:49;;;;;;;;;30.00;24.75;;;;;13.36;49.66;99907.50;2105568;28;45399;-65
2023/04/22 03:54:49;;;;;;;;;26.75;25.25;;;;;13.36;49.57;99916.34;2105189;28;45569;-65
2023/04/22 03:55:50;;;;;;;;;31.25;30.50;;;;;13.36;49.64;99910.16;2094017;28;46030;-64
2023/04/22 03:56:50;;;;;;;;;29.50;26.50;;;;;13.34;49.82;99904.91;2089444;28;46732;-65
2023/04/22 03:57:50;;;;;;;;;31.50;29.75;;;;;13.35;49.69;99911.09;2088103;28;46260;-65
2023/04/22 03:58:51;;;;;;;;;27.00;25.00;;;;;13.35;49.81;99908.44;2087984;28;46385;-65
2023/04/22 03:59:51;;;;;;;;;28.75;25.50;;;;;13.34;49.88;99907.56;2101688;28;46170;-64
2023/04/22 04:00:51;;;;;;;;;32.25;27.25;;;;;13.34;49.64;99898.69;2105326;28;46701;-66
2023/04/22 04:01:52;;;;;;;;;31.25;29.00;;;;;13.34;49.72;99904.00;2105022;28;46791;-64
2023/04/22 04:02:53;;;;;;;;;33.20;30.40;;;;;13.34;49.79;99898.69;2101678;28;46284;-66
2023/04/22 04:03:53;;;;;;;;;32.25;29.00;;;;;13.33;49.93;99897.81;2090263;28;46748;-65
2023/04/22 04:04:53;;;;;;;;;28.00;26.75;;;;;13.33;49.83;99892.50;2088195;28;45710;-64
2023/04/22 04:05:54;;;;;;;;;31.00;29.75;;;;;13.35;49.84;99882.66;2096773;28;46180;-63
2023/04/22 04:06:55;;;;;;;;;32.75;28.25;;;;;13.36;50.05;99883.53;2105365;28;46459;-65
2023/04/22 04:07:55;;;;;;;;;29.80;27.20;;;;;13.35;50.13;99872.00;2105219;28;46007;-64
2023/04/22 04:08:56;;;;;;;;;26.25;24.25;;;;;13.37;50.33;99867.44;2102537;28;45583;-66
2023/04/22 04:09:56;;;;;;;;;29.25;27.00;;;;;13.37;50.15;99872.78;2105429;28;46312;-64
2023/04/22 04:10:56;;;;;;;;;31.00;27.25;;;;;13.37;50.24;99879.91;2105076;28;46203;-66
2023/04/22 04:11:57;;;;;;;;;21.00;18.50;;;;;13.37;50.13;99885.25;2105301;28;46189;-64
2023/04/22 04:12:57;;;;;;;;;34.25;31.50;;;;;13.36;50.38;99899.50;2098188;28;45752;-63
2023/04/22 04:13:57;;;;;;;;;25.00;24.50;;;;;13.35;50.46;99906.63;2096920;28;46638;-65
2023/04/22 04:14:58;;;;;;;;;27.25;27.25;;;;;13.35;50.48;99905.78;2104383;28;47061;-64
2023/04/22 04:15:59;;;;;;;;;29.75;26.00;;;;;13.33;50.54;99910.28;2095668;28;45921;-64
2023/04/22 04:16:59;;;;;;;;;27.50;27.00;;;;;13.34;50.49;99899.59;2087594;28;46787;-64
2023/04/22 04:18:00;;;;;;;;;30.50;29.25;;;;;13.35;50.65;99903.13;2096739;28;46367;-64
2023/04/22 04:19:00;;;;;;;;;26.75;26.75;;;;;13.37;50.70;99901.22;2096631;28;46573;-65
2023/04/22 04:20:00;;;;;;;;;33.00;30.75;;;;;13.38;50.79;99881.63;2097154;28;45567;-65
2023/04/22 04:21:01;;;;;;;;;30.25;29.75;;;;;13.38;50.79;99882.50;2096900;28;46036;-64
2023/04/22 04:22:01;;;;;;;;;28.25;27.00;;;;;13.38;50.74;99877.19;2099527;28;46732;-64
2023/04/22 04:23:02;;;;;;;;;29.00;26.25;;;;;13.37;51.04;99878.13;2101714;27;46324;-64
2023/04/22 04:24:02;;;;;;;;;29.25;27.50;;;;;13.36;50.93;99873.72;2096473;28;44962;-64
2023/04/22 04:25:03;;;;;;;;;27.00;27.00;;;;;13.36;50.99;99868.41;2096874;28;45654;-64
2023/04/22 04:26:04;;;;;;;;;28.50;28.50;;;;;13.36;51.10;99865.72;2104301;28;46766;-63
2023/04/22 04:27:05;;;;;;;;;29.00;27.50;;;;;13.37;51.32;99856.78;2105290;28;46174;-64
2023/04/22 04:28:08;;;;;;;;;27.75;26.50;;;;;13.37;51.25;99840.81;2105307;28;45890;-65
2023/04/22 04:29:08;;;;;;;;;27.00;24.60;;;;;13.36;51.41;99822.22;2104911;28;46444;-64
2023/04/22 04:30:09;;;;;;;;;28.50;28.00;;;;;13.35;51.19;99818.69;2093717;28;46903;-64
2023/04/22 04:31:09;;;;;;;;;28.25;26.75;;;;;13.35;51.50;99817.84;2095832;28;46387;-65
2023/04/22 04:32:09;;;;;;;;;28.00;26.25;;;;;13.35;51.49;99824.03;2104695;28;47283;-64
2023/04/22 04:33:10;;;;;;;;;27.00;27.00;;;;;13.35;51.78;99829.34;2106673;27;45949;-68
2023/04/22 04:34:11;;;;;;;;;26.20;26.20;;;;;13.33;51.55;99833.88;2102803;27;46447;-64
2023/04/22 04:35:14;;;;;;;;;27.50;26.00;;;;;13.34;51.76;99842.72;2099076;28;45048;-65
2023/04/22 04:36:15;;;;;;;;;27.60;27.40;;;;;13.32;51.66;99841.94;2098102;28;47482;-65